Time;durP1;ratioP1;P1;durP2;ratioP2;P2;SDS_P1;SDS_P2;PMS_P1;PMS_P2;Temp;Humidity;BMP_temperature;BMP_pressure;BME280_temperature;BME280_humidity;BME280_pressure;Samples;Min_cycle;Max_cycle;Signal;HPM_P1;HPM_P2
2023/11/21 00:00:12;;;;;;;5.88;1.90;;;;;;;;;;5115786;28;20023;-86
2023/11/21 00:02:39;;;;;;;3.33;1.50;;;;;;;;;;5097817;28;20058;-86
2023/11/21 00:05:06;;;;;;;3.88;2.00;;;;;;;;;;5115741;28;20444;-86
2023/11/21 00:07:31;;;;;;;5.28;1.77;;;;;;;;;;5097642;28;20099;-86
2023/11/21 00:09:57;;;;;;;6.03;1.90;;;;;;;;;;5116175;28;20453;-86
2023/11/21 00:12:22;;;;;;;7.43;2.03;;;;;;;;;;5115806;28;20092;-86
2023/11/21 00:14:47;;;;;;;4.53;2.00;;;;;;;;;;5097690;28;20635;-86
2023/11/21 00:17:12;;;;;;;4.30;1.80;;;;;;;;;;5097594;28;20275;-86
2023/11/21 00:19:38;;;;;;;4.60;1.77;;;;;;;;;;5097539;28;20030;-86
2023/11/21 00:22:03;;;;;;;3.23;1.43;;;;;;;;;;5115512;28;20024;-86
2023/11/21 00:24:28;;;;;;;2.40;1.40;;;;;;;;;;5115672;28;20043;-86
2023/11/21 00:26:53;;;;;;;2.53;1.08;;;;;;;;;;5115205;28;20034;-86
2023/11/21 00:29:19;;;;;;;2.72;1.15;;;;;;;;;;5097203;28;20136;-86
2023/11/21 00:31:44;;;;;;;1.40;1.20;;;;;;;;;;5113842;28;20039;-87
2023/11/21 00:34:11;;;;;;;1.05;0.95;;;;;;;;;;5097108;28;20024;-87
2023/11/21 00:36:36;;;;;;;2.42;1.33;;;;;;;;;;5113600;28;20019;-87
2023/11/21 00:39:03;;;;;;;4.10;1.20;;;;;;;;;;5114958;28;20034;-86
2023/11/21 00:41:29;;;;;;;5.38;1.45;;;;;;;;;;5115298;28;20046;-86
2023/11/21 00:43:54;;;;;;;5.05;1.60;;;;;;;;;;5114799;28;20031;-86
2023/11/21 00:46:20;;;;;;;3.47;1.55;;;;;;;;;;5115183;28;20019;-86
2023/11/21 00:48:45;;;;;;;3.90;1.67;;;;;;;;;;5115086;28;20019;-86
2023/11/21 00:51:10;;;;;;;5.13;2.00;;;;;;;;;;5114466;28;20020;-86
2023/11/21 00:53:36;;;;;;;3.53;1.97;;;;;;;;;;5096907;28;20026;-86
2023/11/21 00:56:01;;;;;;;8.17;1.80;;;;;;;;;;5114667;28;20028;-86
2023/11/21 00:58:26;;;;;;;6.57;1.80;;;;;;;;;;5114867;28;20023;-86
2023/11/21 01:00:51;;;;;;;5.20;1.77;;;;;;;;;;5096724;28;20263;-86
2023/11/21 01:03:17;;;;;;;4.25;2.10;;;;;;;;;;5114605;28;20046;-86
2023/11/21 01:05:42;;;;;;;3.80;1.92;;;;;;;;;;5115082;28;20020;-86
2023/11/21 01:08:07;;;;;;;6.30;2.53;;;;;;;;;;5114754;28;20028;-86
2023/11/21 01:10:34;;;;;;;3.83;2.00;;;;;;;;;;5096480;28;20252;-86
2023/11/21 01:12:59;;;;;;;3.88;2.13;;;;;;;;;;5096233;28;20066;-86
2023/11/21 01:15:25;;;;;;;8.82;2.08;;;;;;;;;;5096609;28;20395;-86
2023/11/21 01:17:51;;;;;;;4.93;1.70;;;;;;;;;;5114742;28;20026;-86
2023/11/21 01:20:17;;;;;;;7.53;1.73;;;;;;;;;;5114583;28;20031;-86
2023/11/21 01:22:42;;;;;;;10.07;2.22;;;;;;;;;;5096254;28;20122;-86
2023/11/21 01:25:08;;;;;;;6.57;1.50;;;;;;;;;;5096180;28;20106;-86
2023/11/21 01:27:34;;;;;;;5.88;1.70;;;;;;;;;;5096142;28;20510;-86
2023/11/21 01:29:59;;;;;;;5.38;1.50;;;;;;;;;;5114178;28;20024;-86
2023/11/21 01:32:24;;;;;;;4.70;1.53;;;;;;;;;;5114218;28;20024;-86
2023/11/21 01:34:50;;;;;;;3.37;1.73;;;;;;;;;;5114181;28;20264;-87
2023/11/21 01:37:17;;;;;;;3.13;1.73;;;;;;;;;;5079465;28;20019;-86
2023/11/21 01:39:42;;;;;;;3.78;1.23;;;;;;;;;;5114199;28;20038;-86
2023/11/21 01:42:07;;;;;;;3.80;1.70;;;;;;;;;;5114097;28;20015;-86
2023/11/21 01:44:33;;;;;;;3.60;1.77;;;;;;;;;;5114359;28;20372;-86
2023/11/21 01:46:58;;;;;;;4.47;1.80;;;;;;;;;;5095838;28;20306;-86
2023/11/21 01:49:23;;;;;;;3.70;2.22;;;;;;;;;;5113703;28;20016;-86
2023/11/21 01:51:49;;;;;;;3.95;1.92;;;;;;;;;;5113796;28;20073;-86
2023/11/21 01:54:17;;;;;;;6.53;1.55;;;;;;;;;;5095741;28;20027;-86
2023/11/21 01:56:42;;;;;;;6.93;2.50;;;;;;;;;;5096094;28;20065;-87
2023/11/21 01:59:08;;;;;;;4.28;2.17;;;;;;;;;;5114401;28;20027;-86
2023/11/21 02:01:33;;;;;;;3.20;2.10;;;;;;;;;;5095752;28;20039;-86
2023/11/21 02:03:59;;;;;;;3.20;2.38;;;;;;;;;;5114286;28;20076;-86
2023/11/21 02:06:24;;;;;;;3.20;2.03;;;;;;;;;;5113759;28;20379;-87
2023/11/21 02:08:50;;;;;;;6.68;2.40;;;;;;;;;;5113882;28;20621;-86
2023/11/21 02:11:15;;;;;;;4.28;2.38;;;;;;;;;;5113816;28;20100;-86
2023/11/21 02:13:42;;;;;;;6.65;2.65;;;;;;;;;;5114261;28;20118;-86
2023/11/21 02:16:09;;;;;;;6.22;2.15;;;;;;;;;;5113427;28;20583;-86
2023/11/21 02:18:34;;;;;;;5.07;2.10;;;;;;;;;;5113248;28;20035;-86
2023/11/21 02:21:02;;;;;;;8.67;2.60;;;;;;;;;;5114004;28;20027;-86
2023/11/21 02:23:28;;;;;;;2.88;2.13;;;;;;;;;;5114127;28;20732;-86
2023/11/21 02:25:54;;;;;;;2.25;1.80;;;;;;;;;;5113360;28;20030;-86
2023/11/21 02:28:25;;;;;;;7.13;2.28;;;;;;;;;;5113614;28;20107;-86
2023/11/21 02:30:55;;;;;;;3.90;2.10;;;;;;;;;;5113387;28;20084;-86
2023/11/21 02:33:20;;;;;;;6.95;2.13;;;;;;;;;;5113731;28;20511;-86
2023/11/21 02:35:46;;;;;;;5.00;2.10;;;;;;;;;;5113523;28;20048;-87
2023/11/21 02:38:11;;;;;;;4.88;2.13;;;;;;;;;;5114137;28;20617;-86
2023/11/21 02:40:37;;;;;;;4.15;2.22;;;;;;;;;;5114195;28;20102;-87
2023/11/21 02:43:02;;;;;;;4.50;2.47;;;;;;;;;;5113723;28;20031;-86
2023/11/21 02:45:27;;;;;;;5.93;2.60;;;;;;;;;;5113711;28;20248;-86
2023/11/21 02:47:56;;;;;;;7.30;1.90;;;;;;;;;;5113597;28;20276;-86
2023/11/21 02:50:22;;;;;;;4.63;2.20;;;;;;;;;;5113352;28;20023;-86
2023/11/21 02:52:47;;;;;;;5.10;2.72;;;;;;;;;;5113751;28;20026;-86
2023/11/21 02:55:13;;;;;;;3.20;2.33;;;;;;;;;;5113111;28;20031;-86
2023/11/21 02:57:38;;;;;;;4.27;2.80;;;;;;;;;;5113558;28;20437;-86
2023/11/21 03:00:07;;;;;;;7.40;3.37;;;;;;;;;;5113228;28;20298;-87
2023/11/21 03:02:32;;;;;;;4.25;2.47;;;;;;;;;;5113270;28;20253;-86
2023/11/21 03:04:57;;;;;;;3.17;2.60;;;;;;;;;;5113744;28;20031;-86
2023/11/21 03:07:22;;;;;;;6.17;3.27;;;;;;;;;;5113266;28;20278;-86
2023/11/21 03:09:47;;;;;;;7.93;3.00;;;;;;;;;;5113250;28;20256;-86
2023/11/21 03:12:13;;;;;;;4.80;3.17;;;;;;;;;;5113192;28;20276;-86
2023/11/21 03:14:39;;;;;;;4.90;3.40;;;;;;;;;;5096324;28;20023;-86
2023/11/21 03:17:04;;;;;;;6.35;3.63;;;;;;;;;;5117530;28;20288;-86
2023/11/21 03:19:30;;;;;;;3.97;3.13;;;;;;;;;;5116427;28;20042;-86
2023/11/21 03:21:55;;;;;;;5.88;3.30;;;;;;;;;;5116846;28;20414;-86
2023/11/21 03:24:22;;;;;;;5.47;3.60;;;;;;;;;;5116701;28;20444;-86
2023/11/21 03:26:47;;;;;;;7.00;3.58;;;;;;;;;;5116831;28;20023;-86
2023/11/21 03:29:13;;;;;;;8.23;3.90;;;;;;;;;;5116592;28;20020;-88
2023/11/21 03:31:38;;;;;;;6.60;3.92;;;;;;;;;;5116721;28;20324;-86
2023/11/21 03:34:03;;;;;;;7.68;4.25;;;;;;;;;;5116514;28;20076;-86
2023/11/21 03:36:28;;;;;;;6.83;4.10;;;;;;;;;;5116592;28;20027;-86
2023/11/21 03:38:55;;;;;;;6.82;4.40;;;;;;;;;;5116385;28;20020;-86
2023/11/21 03:41:20;;;;;;;8.00;4.43;;;;;;;;;;5116591;28;20019;-86
2023/11/21 03:43:45;;;;;;;6.53;4.70;;;;;;;;;;5116179;28;20432;-87
2023/11/21 03:46:12;;;;;;;6.97;4.30;;;;;;;;;;5098074;28;20291;-86
2023/11/21 03:48:37;;;;;;;7.53;5.13;;;;;;;;;;5116422;28;20031;-86
2023/11/21 03:51:02;;;;;;;5.37;3.93;;;;;;;;;;5116550;28;20016;-86
2023/11/21 03:53:28;;;;;;;6.50;4.47;;;;;;;;;;5116244;28;20015;-86
2023/11/21 03:55:53;;;;;;;5.90;3.63;;;;;;;;;;5116104;28;20461;-86
2023/11/21 03:58:18;;;;;;;9.13;4.77;;;;;;;;;;5116303;28;20024;-86
2023/11/21 04:00:43;;;;;;;5.33;4.23;;;;;;;;;;5116084;28;20351;-86
2023/11/21 04:03:08;;;;;;;6.37;4.17;;;;;;;;;;5116166;28;20020;-86
2023/11/21 04:05:34;;;;;;;5.10;3.77;;;;;;;;;;5115886;28;20016;-86
2023/11/21 04:07:59;;;;;;;7.07;3.73;;;;;;;;;;5097668;28;20338;-86
2023/11/21 04:10:24;;;;;;;5.37;3.47;;;;;;;;;;5115699;28;20023;-86
2023/11/21 04:12:49;;;;;;;6.63;4.20;;;;;;;;;;5115961;28;20036;-86
2023/11/21 04:15:15;;;;;;;10.45;4.18;;;;;;;;;;5115743;28;20020;-86
2023/11/21 04:17:40;;;;;;;5.83;4.13;;;;;;;;;;5115861;28;20035;-86
2023/11/21 04:20:08;;;;;;;6.18;3.83;;;;;;;;;;5115181;28;20259;-86
2023/11/21 04:22:34;;;;;;;8.10;3.97;;;;;;;;;;5116341;28;20108;-86
2023/11/21 04:24:59;;;;;;;5.53;3.63;;;;;;;;;;5115288;28;20051;-86
2023/11/21 04:27:24;;;;;;;5.20;3.70;;;;;;;;;;5114650;28;20067;-86
2023/11/21 04:29:49;;;;;;;6.07;3.97;;;;;;;;;;5115633;28;20439;-86
2023/11/21 04:32:15;;;;;;;5.83;4.20;;;;;;;;;;5115271;28;20684;-86
2023/11/21 04:34:40;;;;;;;5.97;3.77;;;;;;;;;;5115199;28;20532;-86
2023/11/21 04:37:06;;;;;;;4.97;3.47;;;;;;;;;;5115553;28;20023;-86
2023/11/21 04:39:31;;;;;;;5.57;3.42;;;;;;;;;;5097349;28;20019;-87
2023/11/21 04:41:56;;;;;;;6.38;3.80;;;;;;;;;;5115507;28;20081;-88
2023/11/21 04:44:22;;;;;;;5.78;3.92;;;;;;;;;;5115724;28;20028;-86
2023/11/21 04:46:47;;;;;;;6.73;4.33;;;;;;;;;;5115162;28;20030;-86
2023/11/21 04:49:12;;;;;;;5.27;3.93;;;;;;;;;;5115064;28;20275;-87
2023/11/21 04:51:37;;;;;;;4.82;4.03;;;;;;;;;;5115020;28;20244;-87
2023/11/21 04:54:03;;;;;;;7.47;4.13;;;;;;;;;;5114642;28;20058;-86
2023/11/21 04:56:28;;;;;;;7.00;4.70;;;;;;;;;;5114619;28;20264;-85
2023/11/21 04:58:53;;;;;;;6.03;4.63;;;;;;;;;;5113398;28;20380;-86
2023/11/21 05:01:18;;;;;;;6.72;4.90;;;;;;;;;;5114524;28;20411;-90
2023/11/21 05:03:44;;;;;;;6.85;4.05;;;;;;;;;;5096792;28;20482;-86
2023/11/21 05:06:10;;;;;;;6.30;4.67;;;;;;;;;;5115352;28;20032;-85
2023/11/21 05:08:36;;;;;;;7.30;4.97;;;;;;;;;;5096785;28;20309;-86
2023/11/21 05:11:02;;;;;;;6.40;4.47;;;;;;;;;;5114948;28;20019;-86
2023/11/21 05:13:27;;;;;;;7.97;4.38;;;;;;;;;;5115436;28;20047;-85
2023/11/21 05:15:54;;;;;;;6.33;4.37;;;;;;;;;;5115049;28;20074;-86
2023/11/21 05:18:19;;;;;;;7.93;4.40;;;;;;;;;;5114982;28;20805;-86
2023/11/21 05:20:44;;;;;;;6.68;4.88;;;;;;;;;;5115027;28;20051;-86
2023/11/21 05:23:09;;;;;;;6.63;4.37;;;;;;;;;;5115088;28;20042;-86
2023/11/21 05:25:35;;;;;;;10.80;5.13;;;;;;;;;;5114837;28;20468;-86
2023/11/21 05:28:02;;;;;;;7.85;3.97;;;;;;;;;;5114857;28;20015;-85
2023/11/21 05:30:27;;;;;;;7.85;5.18;;;;;;;;;;5114789;28;20020;-86
2023/11/21 05:32:53;;;;;;;8.05;4.45;;;;;;;;;;5115124;28;20028;-86
2023/11/21 05:35:18;;;;;;;6.65;4.40;;;;;;;;;;5114669;28;20023;-86
2023/11/21 05:37:44;;;;;;;6.47;4.03;;;;;;;;;;5114560;28;20028;-86
2023/11/21 05:40:09;;;;;;;5.28;4.22;;;;;;;;;;5096587;28;20256;-86
2023/11/21 05:42:35;;;;;;;5.43;3.60;;;;;;;;;;5114563;28;20028;-85
2023/11/21 05:45:11;;;;;;;6.88;4.22;;;;;;;;;;5114271;28;20019;-85
2023/11/21 05:47:40;;;;;;;8.45;3.40;;;;;;;;;;5114316;28;20443;-86
2023/11/21 05:50:06;;;;;;;6.88;3.97;;;;;;;;;;5114570;28;20019;-86
2023/11/21 05:52:32;;;;;;;6.55;3.92;;;;;;;;;;5096306;28;20030;-85
2023/11/21 05:54:57;;;;;;;5.68;3.17;;;;;;;;;;5114217;28;20353;-86
2023/11/21 05:57:23;;;;;;;5.82;2.92;;;;;;;;;;5114127;28;20019;-86
2023/11/21 05:59:48;;;;;;;2.60;1.90;;;;;;;;;;5114755;28;20418;-86
2023/11/21 06:02:13;;;;;;;3.07;2.27;;;;;;;;;;5096219;28;20702;-85
2023/11/21 06:04:38;;;;;;;6.00;2.23;;;;;;;;;;5114039;28;20033;-86
2023/11/21 06:07:04;;;;;;;1.93;1.53;;;;;;;;;;5114013;28;20268;-85
2023/11/21 06:09:29;;;;;;;4.15;1.67;;;;;;;;;;5114089;28;20605;-86
2023/11/21 06:11:54;;;;;;;2.43;1.37;;;;;;;;;;5114495;28;20043;-85
2023/11/21 06:14:21;;;;;;;1.70;1.25;;;;;;;;;;5096124;28;20343;-86
2023/11/21 06:16:47;;;;;;;1.25;1.15;;;;;;;;;;5114247;28;20019;-86
2023/11/21 06:19:12;;;;;;;2.38;1.20;;;;;;;;;;5114387;28;20072;-85
2023/11/21 06:21:38;;;;;;;2.17;1.35;;;;;;;;;;5114273;28;20043;-85
2023/11/21 06:24:03;;;;;;;2.38;1.30;;;;;;;;;;5113784;28;20024;-86
2023/11/21 06:26:29;;;;;;;1.50;1.20;;;;;;;;;;5096003;28;20024;-86
2023/11/21 06:28:54;;;;;;;3.20;0.77;;;;;;;;;;5113903;28;20387;-85
2023/11/21 06:31:21;;;;;;;1.63;0.95;;;;;;;;;;5113906;28;20453;-86
2023/11/21 06:33:46;;;;;;;2.97;1.00;;;;;;;;;;5114056;28;20023;-86
2023/11/21 06:36:12;;;;;;;1.23;1.03;;;;;;;;;;5114122;28;20023;-86
2023/11/21 06:38:37;;;;;;;2.63;1.00;;;;;;;;;;5113994;28;20252;-86
2023/11/21 06:41:04;;;;;;;1.23;0.82;;;;;;;;;;5114296;28;20372;-86
2023/11/21 06:43:31;;;;;;;1.45;0.60;;;;;;;;;;5113788;28;20012;-85
2023/11/21 06:45:56;;;;;;;1.65;0.90;;;;;;;;;;5113571;28;20019;-86
2023/11/21 06:48:21;;;;;;;1.90;0.73;;;;;;;;;;5113800;28;20526;-85
2023/11/21 06:50:46;;;;;;;0.70;0.63;;;;;;;;;;5116815;28;20643;-86
2023/11/21 06:53:13;;;;;;;2.03;0.70;;;;;;;;;;5117561;28;20849;-85
2023/11/21 06:55:38;;;;;;;4.20;1.20;;;;;;;;;;5117959;28;20016;-85
2023/11/21 06:58:05;;;;;;;2.00;0.90;;;;;;;;;;5117802;28;20023;-86
2023/11/21 07:00:30;;;;;;;1.45;0.77;;;;;;;;;;5099389;28;20755;-85
2023/11/21 07:02:55;;;;;;;0.90;0.77;;;;;;;;;;5099356;28;20098;-85
2023/11/21 07:05:21;;;;;;;1.85;0.82;;;;;;;;;;5117509;28;20276;-86
2023/11/21 07:07:48;;;;;;;1.10;0.70;;;;;;;;;;5117191;28;20080;-85
2023/11/21 07:10:13;;;;;;;1.83;0.98;;;;;;;;;;5117385;28;20106;-85
2023/11/21 07:12:39;;;;;;;2.00;1.10;;;;;;;;;;5099058;28;20079;-86
2023/11/21 07:15:06;;;;;;;1.83;1.13;;;;;;;;;;5117209;28;20019;-85
2023/11/21 07:17:32;;;;;;;3.03;1.10;;;;;;;;;;5099126;28;20027;-85
2023/11/21 07:19:57;;;;;;;1.52;1.23;;;;;;;;;;5117030;28;20015;-85
2023/11/21 07:22:22;;;;;;;2.70;1.10;;;;;;;;;;5117078;28;20482;-86
2023/11/21 07:24:48;;;;;;;1.23;1.10;;;;;;;;;;5117388;28;20022;-86
2023/11/21 07:27:13;;;;;;;0.85;0.80;;;;;;;;;;5116987;28;20716;-86
2023/11/21 07:29:39;;;;;;;1.40;1.20;;;;;;;;;;5116883;28;20032;-85
2023/11/21 07:32:05;;;;;;;1.17;1.08;;;;;;;;;;5117288;28;20102;-86
2023/11/21 07:34:30;;;;;;;2.10;1.50;;;;;;;;;;5117528;28;20039;-86
2023/11/21 07:36:56;;;;;;;1.30;1.02;;;;;;;;;;5117205;28;20055;-86
2023/11/21 07:39:21;;;;;;;1.10;0.98;;;;;;;;;;5117244;28;20395;-86
2023/11/21 07:41:48;;;;;;;3.17;1.60;;;;;;;;;;5116746;28;20020;-87
2023/11/21 07:44:14;;;;;;;2.15;1.25;;;;;;;;;;5116895;28;20775;-86
2023/11/21 07:46:40;;;;;;;2.10;1.00;;;;;;;;;;5116549;28;20111;-86
2023/11/21 07:49:05;;;;;;;1.38;1.05;;;;;;;;;;5117042;28;20102;-86
2023/11/21 07:51:30;;;;;;;3.17;1.00;;;;;;;;;;5098550;28;20102;-85
2023/11/21 07:53:56;;;;;;;1.63;1.20;;;;;;;;;;5098757;28;20440;-86
2023/11/21 07:56:21;;;;;;;3.47;1.30;;;;;;;;;;5116764;28;20020;-86
2023/11/21 07:58:46;;;;;;;3.23;1.70;;;;;;;;;;5116514;28;20016;-88
2023/11/21 08:01:11;;;;;;;2.42;1.60;;;;;;;;;;5098244;28;20260;-86
2023/11/21 08:03:37;;;;;;;2.97;1.75;;;;;;;;;;5116605;28;20031;-85
2023/11/21 08:06:05;;;;;;;3.97;2.25;;;;;;;;;;5116854;28;20027;-86
2023/11/21 08:08:32;;;;;;;3.22;2.42;;;;;;;;;;5097924;28;20384;-86
2023/11/21 08:10:57;;;;;;;3.45;2.22;;;;;;;;;;5116167;28;20015;-86
2023/11/21 08:13:25;;;;;;;2.87;1.60;;;;;;;;;;5116678;28;20064;-85
2023/11/21 08:15:50;;;;;;;4.53;1.75;;;;;;;;;;5116352;28;20247;-86
2023/11/21 08:18:17;;;;;;;3.85;2.10;;;;;;;;;;5116001;28;20073;-86
2023/11/21 08:20:42;;;;;;;2.72;1.77;;;;;;;;;;5116231;28;20019;-86
2023/11/21 08:23:07;;;;;;;2.38;1.70;;;;;;;;;;5116191;28;20102;-86
2023/11/21 08:25:34;;;;;;;3.23;1.70;;;;;;;;;;5116110;28;20027;-85
2023/11/21 08:27:59;;;;;;;2.85;1.95;;;;;;;;;;5115705;28;20461;-84
2023/11/21 08:30:25;;;;;;;4.43;2.23;;;;;;;;;;5097792;28;20016;-86
2023/11/21 08:32:52;;;;;;;2.90;1.90;;;;;;;;;;5097779;28;20272;-86
2023/11/21 08:35:17;;;;;;;6.78;2.20;;;;;;;;;;5116055;28;20495;-88
2023/11/21 08:37:42;;;;;;;3.50;2.00;;;;;;;;;;5115647;28;20087;-86
2023/11/21 08:40:09;;;;;;;2.28;1.80;;;;;;;;;;5097464;28;20028;-86
2023/11/21 08:42:34;;;;;;;4.80;1.90;;;;;;;;;;5115668;28;20022;-85
2023/11/21 08:45:00;;;;;;;2.83;1.83;;;;;;;;;;5115693;28;20020;-86
2023/11/21 08:47:26;;;;;;;2.78;1.77;;;;;;;;;;5115647;28;20495;-86
2023/11/21 08:49:53;;;;;;;2.03;1.65;;;;;;;;;;5097370;28;20590;-85
2023/11/21 08:52:18;;;;;;;2.40;1.90;;;;;;;;;;5115657;28;20042;-87
2023/11/21 08:54:45;;;;;;;6.80;1.90;;;;;;;;;;5096932;28;20383;-86
2023/11/21 08:57:10;;;;;;;2.45;1.60;;;;;;;;;;5097330;28;20106;-85
2023/11/21 08:59:35;;;;;;;3.03;1.83;;;;;;;;;;5115048;28;20570;-86
2023/11/21 09:02:01;;;;;;;3.13;1.63;;;;;;;;;;5097234;28;20026;-86
2023/11/21 09:04:27;;;;;;;3.73;1.87;;;;;;;;;;5115049;28;20240;-86
2023/11/21 09:06:52;;;;;;;3.35;1.10;;;;;;;;;;5096628;28;20275;-86
2023/11/21 09:09:17;;;;;;;2.33;1.00;;;;;;;;;;5115260;28;20100;-86
2023/11/21 09:11:44;;;;;;;2.03;1.17;;;;;;;;;;5114570;28;20260;-85
2023/11/21 09:14:10;;;;;;;2.13;1.50;;;;;;;;;;5114758;28;20108;-86
2023/11/21 09:16:35;;;;;;;3.50;1.58;;;;;;;;;;5115118;28;20055;-85
2023/11/21 09:19:00;;;;;;;1.77;1.25;;;;;;;;;;5096865;28;20124;-86
2023/11/21 09:21:25;;;;;;;2.67;1.40;;;;;;;;;;5097143;28;20028;-86
2023/11/21 09:23:51;;;;;;;2.17;1.20;;;;;;;;;;5115017;28;20256;-86
2023/11/21 09:26:17;;;;;;;3.90;1.17;;;;;;;;;;5115179;28;20106;-86
2023/11/21 09:28:47;;;;;;;3.08;0.98;;;;;;;;;;5096729;28;20107;-85
2023/11/21 09:31:12;;;;;;;1.40;0.70;;;;;;;;;;5114871;28;20444;-86
2023/11/21 09:33:38;;;;;;;2.38;1.25;;;;;;;;;;5096594;28;20031;-86
2023/11/21 09:36:04;;;;;;;1.77;1.10;;;;;;;;;;5114852;28;20062;-86
2023/11/21 09:38:29;;;;;;;1.50;0.90;;;;;;;;;;5115182;28;20023;-86
2023/11/21 09:40:55;;;;;;;1.27;0.90;;;;;;;;;;5114577;28;20028;-85
2023/11/21 09:43:20;;;;;;;1.75;1.10;;;;;;;;;;5114578;28;20369;-86
2023/11/21 09:45:47;;;;;;;1.90;1.10;;;;;;;;;;5114742;28;20072;-86
2023/11/21 09:48:13;;;;;;;1.88;1.20;;;;;;;;;;5096153;28;20050;-86
2023/11/21 09:50:41;;;;;;;1.65;1.23;;;;;;;;;;5114289;28;20469;-86
2023/11/21 09:53:16;;;;;;;2.38;1.25;;;;;;;;;;5114584;28;20072;-86
2023/11/21 09:55:46;;;;;;;1.67;0.95;;;;;;;;;;5114466;28;20022;-86
2023/11/21 09:58:12;;;;;;;7.05;1.77;;;;;;;;;;5114458;28;20011;-86
2023/11/21 10:00:40;;;;;;;2.95;1.08;;;;;;;;;;5114242;28;20016;-86
2023/11/21 10:03:05;;;;;;;1.95;0.75;;;;;;;;;;5113971;28;20019;-86
2023/11/21 10:05:34;;;;;;;1.23;0.80;;;;;;;;;;5114448;28;20019;-85
2023/11/21 10:07:59;;;;;;;1.70;0.88;;;;;;;;;;5114098;28;20330;-86
2023/11/21 10:10:25;;;;;;;1.35;1.00;;;;;;;;;;5114067;28;20020;-86
2023/11/21 10:12:53;;;;;;;2.40;0.98;;;;;;;;;;5114518;28;20058;-86
2023/11/21 10:15:21;;;;;;;1.10;1.00;;;;;;;;;;5114600;28;20073;-86
2023/11/21 10:17:48;;;;;;;1.55;1.08;;;;;;;;;;5114187;28;20051;-86
2023/11/21 10:20:14;;;;;;;2.03;1.20;;;;;;;;;;5096031;28;20421;-86
2023/11/21 10:22:43;;;;;;;2.55;1.15;;;;;;;;;;5114211;28;20493;-86
2023/11/21 10:25:09;;;;;;;3.58;1.40;;;;;;;;;;5116551;28;20019;-86
2023/11/21 10:27:34;;;;;;;3.22;1.70;;;;;;;;;;5118465;28;20031;-86
2023/11/21 10:30:04;;;;;;;2.75;1.30;;;;;;;;;;5118315;28;20028;-86
2023/11/21 10:32:32;;;;;;;4.30;1.83;;;;;;;;;;5118504;28;20023;-86
2023/11/21 10:34:59;;;;;;;3.42;1.63;;;;;;;;;;5118374;28;20020;-86
2023/11/21 10:37:25;;;;;;;2.53;1.30;;;;;;;;;;5118278;28;20024;-86
2023/11/21 10:39:50;;;;;;;3.53;1.52;;;;;;;;;;5099903;28;20375;-86
2023/11/21 10:42:17;;;;;;;5.33;1.73;;;;;;;;;;5118066;28;20019;-86
2023/11/21 10:44:44;;;;;;;2.03;1.15;;;;;;;;;;5117865;28;20250;-86
2023/11/21 10:47:11;;;;;;;4.43;1.90;;;;;;;;;;5117986;28;20360;-86
2023/11/21 10:49:37;;;;;;;2.53;1.63;;;;;;;;;;5118027;28;20027;-85
2023/11/21 10:52:03;;;;;;;2.15;1.35;;;;;;;;;;5118062;28;20019;-86
2023/11/21 10:54:29;;;;;;;5.05;1.35;;;;;;;;;;5099558;28;20107;-86
2023/11/21 10:56:58;;;;;;;2.87;1.60;;;;;;;;;;5118040;28;20404;-86
2023/11/21 10:59:26;;;;;;;2.05;1.60;;;;;;;;;;5099641;28;20621;-86
2023/11/21 11:01:52;;;;;;;2.35;1.35;;;;;;;;;;5117851;28;20020;-87
2023/11/21 11:04:18;;;;;;;3.00;1.63;;;;;;;;;;5099473;28;20020;-86
2023/11/21 11:06:43;;;;;;;1.92;1.45;;;;;;;;;;5117359;28;20030;-86
2023/11/21 11:09:13;;;;;;;2.58;1.30;;;;;;;;;;5099477;28;20024;-86
2023/11/21 11:11:40;;;;;;;2.55;1.25;;;;;;;;;;5117673;28;20019;-86
2023/11/21 11:14:06;;;;;;;2.78;1.50;;;;;;;;;;5117407;28;20054;-86
2023/11/21 11:16:32;;;;;;;2.63;1.20;;;;;;;;;;5117542;28;20127;-86
2023/11/21 11:18:57;;;;;;;2.90;1.20;;;;;;;;;;5117622;28;20023;-86
2023/11/21 11:21:22;;;;;;;2.93;1.33;;;;;;;;;;5099311;28;20112;-86
2023/11/21 11:23:57;;;;;;;2.83;1.37;;;;;;;;;;5099118;28;20720;-86
2023/11/21 11:26:31;;;;;;;2.42;1.58;;;;;;;;;;5117462;28;20019;-86
2023/11/21 11:29:19;;;;;;;2.38;1.23;;;;;;;;;;5117231;28;20023;-86
2023/11/21 11:31:59;;;;;;;2.35;0.95;;;;;;;;;;5116959;28;20081;-86
2023/11/21 11:34:32;;;;;;;3.42;1.55;;;;;;;;;;5117065;28;20022;-86
2023/11/21 11:37:10;;;;;;;1.73;1.23;;;;;;;;;;5116580;28;20018;-86
2023/11/21 11:39:41;;;;;;;3.45;1.30;;;;;;;;;;5098870;28;20113;-85
2023/11/21 11:42:08;;;;;;;4.10;1.38;;;;;;;;;;5116976;28;20533;-86
2023/11/21 11:44:51;;;;;;;2.13;1.20;;;;;;;;;;5116932;28;20016;-86
2023/11/21 11:47:16;;;;;;;2.58;1.10;;;;;;;;;;5116664;28;20042;-86
2023/11/21 11:50:04;;;;;;;5.03;1.25;;;;;;;;;;5098570;28;20446;-86
2023/11/21 11:52:35;;;;;;;3.00;1.65;;;;;;;;;;5116793;28;20477;-86
2023/11/21 11:55:02;;;;;;;5.93;1.40;;;;;;;;;;5116712;28;20012;-86
2023/11/21 11:57:29;;;;;;;3.70;1.02;;;;;;;;;;5098396;28;20486;-86
2023/11/21 12:00:27;;;;;;;8.63;1.50;;;;;;;;;;5116358;28;20098;-86
2023/11/21 12:02:53;;;;;;;1.73;1.27;;;;;;;;;;5115289;28;20084;-87
2023/11/21 12:05:19;;;;;;;2.60;1.30;;;;;;;;;;5116515;28;20015;-86
2023/11/21 12:07:47;;;;;;;1.52;1.10;;;;;;;;;;5116431;28;20080;-86
2023/11/21 12:10:19;;;;;;;1.67;1.20;;;;;;;;;;5116504;28;20022;-86
2023/11/21 12:12:46;;;;;;;2.42;1.13;;;;;;;;;;5116527;28;20131;-86
2023/11/21 12:15:11;;;;;;;2.63;1.67;;;;;;;;;;5116431;28;20023;-86
2023/11/21 12:17:38;;;;;;;2.78;1.15;;;;;;;;;;5098109;28;20166;-86
2023/11/21 12:20:05;;;;;;;2.85;1.55;;;;;;;;;;5116652;28;20024;-86
2023/11/21 12:22:30;;;;;;;2.30;1.10;;;;;;;;;;5115843;28;20028;-86
2023/11/21 12:24:56;;;;;;;2.33;1.50;;;;;;;;;;5116138;28;20016;-86
2023/11/21 12:27:21;;;;;;;3.25;1.00;;;;;;;;;;5116093;28;20054;-86
2023/11/21 12:29:46;;;;;;;6.03;1.48;;;;;;;;;;5115820;28;20024;-86
2023/11/21 12:32:12;;;;;;;2.37;1.13;;;;;;;;;;5115584;28;20533;-86
2023/11/21 12:34:38;;;;;;;2.50;1.27;;;;;;;;;;5115689;28;20728;-86
2023/11/21 12:37:03;;;;;;;1.85;1.20;;;;;;;;;;5115823;28;20028;-86
2023/11/21 12:39:29;;;;;;;2.97;1.40;;;;;;;;;;5115887;28;20349;-86
2023/11/21 12:41:54;;;;;;;5.73;1.63;;;;;;;;;;5115764;28;20057;-86
2023/11/21 12:44:19;;;;;;;2.80;1.20;;;;;;;;;;5115568;28;20249;-86
2023/11/21 12:46:45;;;;;;;4.00;1.38;;;;;;;;;;5114878;28;20027;-86
2023/11/21 12:49:17;;;;;;;2.60;1.17;;;;;;;;;;5115903;28;20054;-85
2023/11/21 12:51:42;;;;;;;2.40;1.10;;;;;;;;;;5115720;28;20464;-86
2023/11/21 12:54:09;;;;;;;4.10;1.20;;;;;;;;;;5115785;28;20058;-86
2023/11/21 12:56:38;;;;;;;1.92;1.00;;;;;;;;;;5115570;28;20020;-86
2023/11/21 12:59:04;;;;;;;2.70;1.00;;;;;;;;;;5115563;28;20107;-86
2023/11/21 13:01:31;;;;;;;1.90;0.88;;;;;;;;;;5115294;28;20089;-86
2023/11/21 13:03:59;;;;;;;2.17;1.10;;;;;;;;;;5115369;28;20039;-86
2023/11/21 13:06:25;;;;;;;2.95;0.90;;;;;;;;;;5115086;28;20019;-86
2023/11/21 13:08:51;;;;;;;1.73;0.88;;;;;;;;;;5115343;28;20020;-86
2023/11/21 13:11:17;;;;;;;1.52;0.80;;;;;;;;;;5114810;28;20026;-86
2023/11/21 13:13:45;;;;;;;2.40;0.80;;;;;;;;;;5096697;28;20058;-85
2023/11/21 13:16:11;;;;;;;2.58;1.38;;;;;;;;;;5115168;28;20453;-86
2023/11/21 13:18:37;;;;;;;2.28;1.05;;;;;;;;;;5115313;28;20080;-86
2023/11/21 13:21:13;;;;;;;4.55;0.80;;;;;;;;;;5096900;28;20052;-86
2023/11/21 13:23:40;;;;;;;2.75;1.00;;;;;;;;;;5096877;28;20058;-86
2023/11/21 13:26:06;;;;;;;1.98;1.00;;;;;;;;;;5115046;28;20478;-86
2023/11/21 13:28:33;;;;;;;5.03;1.05;;;;;;;;;;5114655;28;20020;-86
2023/11/21 13:31:02;;;;;;;4.28;1.10;;;;;;;;;;5096350;28;20059;-85
2023/11/21 13:33:28;;;;;;;2.55;1.00;;;;;;;;;;5114784;28;20487;-86
2023/11/21 13:35:55;;;;;;;3.40;1.00;;;;;;;;;;5115023;28;20012;-85
2023/11/21 13:38:23;;;;;;;3.50;0.98;;;;;;;;;;5114816;28;20487;-86
2023/11/21 13:40:53;;;;;;;5.82;0.95;;;;;;;;;;5114481;28;20016;-85
2023/11/21 13:43:20;;;;;;;2.08;0.90;;;;;;;;;;5114726;28;20030;-85
2023/11/21 13:45:46;;;;;;;3.63;0.80;;;;;;;;;;5114753;28;20019;-86
2023/11/21 13:48:13;;;;;;;2.78;0.75;;;;;;;;;;5114579;28;20106;-85
2023/11/21 13:50:52;;;;;;;5.32;1.00;;;;;;;;;;5114563;28;20031;-85
2023/11/21 13:53:22;;;;;;;3.78;1.05;;;;;;;;;;5114569;28;20049;-85
2023/11/21 13:55:49;;;;;;;4.95;1.13;;;;;;;;;;5114825;28;20099;-85
2023/11/21 13:58:19;;;;;;;4.25;1.40;;;;;;;;;;5114572;28;20072;-86
2023/11/21 14:00:45;;;;;;;3.88;1.48;;;;;;;;;;5114303;28;20027;-86
2023/11/21 14:03:21;;;;;;;1.83;1.05;;;;;;;;;;5114419;28;20026;-86
2023/11/21 14:05:51;;;;;;;4.80;1.20;;;;;;;;;;5114347;28;20023;-86
2023/11/21 14:08:20;;;;;;;1.75;0.90;;;;;;;;;;5114144;28;20027;-86
2023/11/21 14:10:50;;;;;;;5.80;1.25;;;;;;;;;;5114655;28;20012;-85
2023/11/21 14:13:16;;;;;;;4.68;1.10;;;;;;;;;;5113881;28;20071;-86
2023/11/21 14:15:45;;;;;;;2.10;1.13;;;;;;;;;;5096183;28;20034;-86
2023/11/21 14:18:10;;;;;;;2.05;1.25;;;;;;;;;;5114225;28;20476;-86
2023/11/21 14:20:39;;;;;;;4.25;1.15;;;;;;;;;;5114250;28;20019;-86
2023/11/21 14:23:06;;;;;;;1.10;0.90;;;;;;;;;;5096232;28;20031;-86
2023/11/21 14:25:32;;;;;;;2.30;1.38;;;;;;;;;;5114569;28;20032;-85
2023/11/21 14:27:58;;;;;;;2.25;1.35;;;;;;;;;;5114059;28;20525;-86
2023/11/21 14:30:23;;;;;;;2.33;1.25;;;;;;;;;;5114276;28;20039;-86
2023/11/21 14:32:50;;;;;;;1.55;1.08;;;;;;;;;;5114433;28;20020;-86
2023/11/21 14:35:16;;;;;;;3.92;1.38;;;;;;;;;;5114126;28;20160;-86
2023/11/21 14:37:42;;;;;;;2.30;1.02;;;;;;;;;;5114327;28;20019;-86